sensor_id;sensor_type;location;lat;lon;timestamp;P1;durP1;ratioP1;P2;durP2;ratioP2
11328;SDS011;5719;42.714;23.732;2022-08-19T00:01:19;5.22;;;4.72;;
11328;SDS011;5719;42.714;23.732;2022-08-19T00:03:46;5.43;;;4.90;;
11328;SDS011;5719;42.714;23.732;2022-08-19T00:06:13;5.38;;;4.88;;
11328;SDS011;5719;42.714;23.732;2022-08-19T00:08:40;5.47;;;5.00;;
11328;SDS011;5719;42.714;23.732;2022-08-19T00:11:08;5.65;;;5.07;;
11328;SDS011;5719;42.714;23.732;2022-08-19T00:13:37;4.88;;;4.57;;
11328;SDS011;5719;42.714;23.732;2022-08-19T00:16:04;6.40;;;5.35;;
11328;SDS011;5719;42.714;23.732;2022-08-19T00:18:32;6.10;;;4.90;;
11328;SDS011;5719;42.714;23.732;2022-08-19T00:20:59;6.72;;;4.63;;
11328;SDS011;5719;42.714;23.732;2022-08-19T00:23:26;5.78;;;5.20;;
11328;SDS011;5719;42.714;23.732;2022-08-19T00:25:53;4.95;;;4.55;;
11328;SDS011;5719;42.714;23.732;2022-08-19T00:28:20;4.85;;;4.50;;
11328;SDS011;5719;42.714;23.732;2022-08-19T00:30:48;6.22;;;5.05;;
11328;SDS011;5719;42.714;23.732;2022-08-19T00:33:16;7.18;;;5.13;;
11328;SDS011;5719;42.714;23.732;2022-08-19T00:35:43;9.65;;;5.10;;
11328;SDS011;5719;42.714;23.732;2022-08-19T00:38:10;7.60;;;5.15;;
11328;SDS011;5719;42.714;23.732;2022-08-19T00:40:37;6.70;;;5.18;;
11328;SDS011;5719;42.714;23.732;2022-08-19T00:43:07;5.10;;;4.60;;
11328;SDS011;5719;42.714;23.732;2022-08-19T00:45:35;6.40;;;5.68;;
11328;SDS011;5719;42.714;23.732;2022-08-19T00:48:06;6.32;;;4.85;;
11328;SDS011;5719;42.714;23.732;2022-08-19T00:50:34;5.95;;;5.25;;
11328;SDS011;5719;42.714;23.732;2022-08-19T00:53:01;6.70;;;5.22;;
11328;SDS011;5719;42.714;23.732;2022-08-19T00:55:30;6.18;;;5.57;;
11328;SDS011;5719;42.714;23.732;2022-08-19T00:57:59;9.73;;;5.95;;
11328;SDS011;5719;42.714;23.732;2022-08-19T01:00:30;10.30;;;5.70;;
11328;SDS011;5719;42.714;23.732;2022-08-19T01:02:57;8.25;;;5.72;;
11328;SDS011;5719;42.714;23.732;2022-08-19T01:05:27;11.98;;;5.70;;
11328;SDS011;5719;42.714;23.732;2022-08-19T01:07:55;5.75;;;5.10;;
11328;SDS011;5719;42.714;23.732;2022-08-19T01:10:25;5.90;;;5.30;;
11328;SDS011;5719;42.714;23.732;2022-08-19T01:12:55;7.45;;;5.38;;
11328;SDS011;5719;42.714;23.732;2022-08-19T01:15:25;7.00;;;5.43;;
11328;SDS011;5719;42.714;23.732;2022-08-19T01:17:54;5.65;;;5.15;;
11328;SDS011;5719;42.714;23.732;2022-08-19T01:20:23;6.22;;;5.20;;
11328;SDS011;5719;42.714;23.732;2022-08-19T01:22:53;6.57;;;5.97;;
11328;SDS011;5719;42.714;23.732;2022-08-19T01:25:22;8.18;;;5.70;;
11328;SDS011;5719;42.714;23.732;2022-08-19T01:27:54;6.07;;;5.55;;
11328;SDS011;5719;42.714;23.732;2022-08-19T01:30:23;8.07;;;6.00;;
11328;SDS011;5719;42.714;23.732;2022-08-19T01:32:55;5.93;;;5.43;;
11328;SDS011;5719;42.714;23.732;2022-08-19T01:35:24;6.65;;;5.80;;
11328;SDS011;5719;42.714;23.732;2022-08-19T01:37:54;5.60;;;4.93;;
11328;SDS011;5719;42.714;23.732;2022-08-19T01:40:23;7.93;;;5.05;;
11328;SDS011;5719;42.714;23.732;2022-08-19T01:42:54;10.48;;;5.68;;
11328;SDS011;5719;42.714;23.732;2022-08-19T01:45:21;6.75;;;5.63;;
11328;SDS011;5719;42.714;23.732;2022-08-19T01:47:50;5.82;;;5.28;;
11328;SDS011;5719;42.714;23.732;2022-08-19T01:50:17;6.15;;;5.60;;
11328;SDS011;5719;42.714;23.732;2022-08-19T01:52:44;8.48;;;5.43;;
11328;SDS011;5719;42.714;23.732;2022-08-19T01:55:14;7.25;;;5.25;;
11328;SDS011;5719;42.714;23.732;2022-08-19T01:57:48;7.82;;;5.78;;
11328;SDS011;5719;42.714;23.732;2022-08-19T02:00:19;6.03;;;5.50;;
11328;SDS011;5719;42.714;23.732;2022-08-19T02:02:48;6.43;;;5.80;;
11328;SDS011;5719;42.714;23.732;2022-08-19T02:05:15;6.47;;;5.88;;
11328;SDS011;5719;42.714;23.732;2022-08-19T02:07:43;9.73;;;5.85;;
11328;SDS011;5719;42.714;23.732;2022-08-19T02:10:11;9.15;;;6.18;;
11328;SDS011;5719;42.714;23.732;2022-08-19T02:12:42;8.63;;;5.97;;
11328;SDS011;5719;42.714;23.732;2022-08-19T02:15:09;6.30;;;5.70;;
11328;SDS011;5719;42.714;23.732;2022-08-19T02:17:36;6.53;;;5.82;;
11328;SDS011;5719;42.714;23.732;2022-08-19T02:20:03;6.25;;;5.65;;
11328;SDS011;5719;42.714;23.732;2022-08-19T02:22:31;6.75;;;6.18;;
11328;SDS011;5719;42.714;23.732;2022-08-19T02:24:58;7.82;;;6.10;;
11328;SDS011;5719;42.714;23.732;2022-08-19T02:27:25;6.93;;;5.82;;
11328;SDS011;5719;42.714;23.732;2022-08-19T02:29:53;6.57;;;5.97;;
11328;SDS011;5719;42.714;23.732;2022-08-19T02:32:20;6.28;;;5.72;;
11328;SDS011;5719;42.714;23.732;2022-08-19T02:34:47;7.72;;;6.15;;
11328;SDS011;5719;42.714;23.732;2022-08-19T02:37:14;6.72;;;5.13;;
11328;SDS011;5719;42.714;23.732;2022-08-19T02:39:55;6.65;;;6.03;;
11328;SDS011;5719;42.714;23.732;2022-08-19T02:42:22;12.20;;;6.57;;
11328;SDS011;5719;42.714;23.732;2022-08-19T02:44:49;8.38;;;6.82;;
11328;SDS011;5719;42.714;23.732;2022-08-19T02:47:18;7.28;;;6.60;;
11328;SDS011;5719;42.714;23.732;2022-08-19T02:49:45;6.88;;;6.28;;
11328;SDS011;5719;42.714;23.732;2022-08-19T02:52:14;7.28;;;6.55;;
11328;SDS011;5719;42.714;23.732;2022-08-19T02:54:40;8.48;;;6.35;;
11328;SDS011;5719;42.714;23.732;2022-08-19T02:57:08;8.63;;;6.82;;
11328;SDS011;5719;42.714;23.732;2022-08-19T02:59:35;6.60;;;6.00;;
11328;SDS011;5719;42.714;23.732;2022-08-19T03:02:05;12.02;;;6.82;;
11328;SDS011;5719;42.714;23.732;2022-08-19T03:04:33;7.10;;;6.40;;
11328;SDS011;5719;42.714;23.732;2022-08-19T03:07:00;7.43;;;6.65;;
11328;SDS011;5719;42.714;23.732;2022-08-19T03:09:27;12.38;;;7.28;;
11328;SDS011;5719;42.714;23.732;2022-08-19T03:11:55;11.48;;;6.55;;
11328;SDS011;5719;42.714;23.732;2022-08-19T03:14:22;9.90;;;6.93;;
11328;SDS011;5719;42.714;23.732;2022-08-19T03:16:49;8.05;;;6.78;;
11328;SDS011;5719;42.714;23.732;2022-08-19T03:19:18;8.63;;;6.65;;
11328;SDS011;5719;42.714;23.732;2022-08-19T03:21:48;10.02;;;7.43;;
11328;SDS011;5719;42.714;23.732;2022-08-19T03:24:15;8.82;;;7.18;;
11328;SDS011;5719;42.714;23.732;2022-08-19T03:26:44;17.38;;;7.25;;
11328;SDS011;5719;42.714;23.732;2022-08-19T03:29:14;10.57;;;7.40;;
11328;SDS011;5719;42.714;23.732;2022-08-19T03:31:43;12.15;;;7.68;;
11328;SDS011;5719;42.714;23.732;2022-08-19T03:34:11;8.93;;;6.90;;
11328;SDS011;5719;42.714;23.732;2022-08-19T03:36:39;8.63;;;6.95;;
11328;SDS011;5719;42.714;23.732;2022-08-19T03:39:09;14.40;;;7.05;;
11328;SDS011;5719;42.714;23.732;2022-08-19T03:41:38;17.13;;;6.85;;
11328;SDS011;5719;42.714;23.732;2022-08-19T03:44:06;7.65;;;6.47;;
11328;SDS011;5719;42.714;23.732;2022-08-19T03:46:34;9.32;;;7.72;;
11328;SDS011;5719;42.714;23.732;2022-08-19T03:49:02;11.95;;;7.10;;
11328;SDS011;5719;42.714;23.732;2022-08-19T03:51:33;14.23;;;6.95;;
11328;SDS011;5719;42.714;23.732;2022-08-19T03:54:02;8.07;;;7.25;;
11328;SDS011;5719;42.714;23.732;2022-08-19T03:56:32;15.32;;;7.30;;
11328;SDS011;5719;42.714;23.732;2022-08-19T03:59:00;10.25;;;7.10;;
11328;SDS011;5719;42.714;23.732;2022-08-19T04:01:28;8.13;;;7.32;;
11328;SDS011;5719;42.714;23.732;2022-08-19T04:03:56;10.93;;;7.43;;
11328;SDS011;5719;42.714;23.732;2022-08-19T04:06:25;11.10;;;7.00;;
11328;SDS011;5719;42.714;23.732;2022-08-19T04:08:55;8.88;;;7.78;;
11328;SDS011;5719;42.714;23.732;2022-08-19T04:11:23;11.35;;;7.32;;
11328;SDS011;5719;42.714;23.732;2022-08-19T04:13:54;7.85;;;7.05;;
11328;SDS011;5719;42.714;23.732;2022-08-19T04:16:22;7.30;;;6.70;;
11328;SDS011;5719;42.714;23.732;2022-08-19T04:18:54;9.52;;;6.70;;
11328;SDS011;5719;42.714;23.732;2022-08-19T04:21:22;8.18;;;7.35;;
11328;SDS011;5719;42.714;23.732;2022-08-19T04:23:49;8.48;;;7.18;;
11328;SDS011;5719;42.714;23.732;2022-08-19T04:26:18;10.98;;;9.30;;
11328;SDS011;5719;42.714;23.732;2022-08-19T04:28:49;22.77;;;16.95;;
11328;SDS011;5719;42.714;23.732;2022-08-19T04:31:18;34.92;;;27.00;;
11328;SDS011;5719;42.714;23.732;2022-08-19T04:33:47;27.02;;;22.35;;
11328;SDS011;5719;42.714;23.732;2022-08-19T04:36:16;16.80;;;15.02;;
11328;SDS011;5719;42.714;23.732;2022-08-19T04:38:45;25.23;;;19.15;;
11328;SDS011;5719;42.714;23.732;2022-08-19T04:41:13;18.75;;;15.57;;
11328;SDS011;5719;42.714;23.732;2022-08-19T04:43:57;11.38;;;8.63;;
11328;SDS011;5719;42.714;23.732;2022-08-19T04:46:25;9.25;;;7.88;;
11328;SDS011;5719;42.714;23.732;2022-08-19T04:48:54;11.20;;;7.18;;
11328;SDS011;5719;42.714;23.732;2022-08-19T04:51:22;13.38;;;7.30;;
11328;SDS011;5719;42.714;23.732;2022-08-19T04:53:49;11.77;;;7.57;;
11328;SDS011;5719;42.714;23.732;2022-08-19T04:56:17;9.45;;;7.72;;
11328;SDS011;5719;42.714;23.732;2022-08-19T04:58:45;11.02;;;7.57;;
11328;SDS011;5719;42.714;23.732;2022-08-19T05:01:13;11.73;;;7.32;;
11328;SDS011;5719;42.714;23.732;2022-08-19T05:03:42;10.95;;;7.72;;
11328;SDS011;5719;42.714;23.732;2022-08-19T05:06:10;10.90;;;7.28;;
11328;SDS011;5719;42.714;23.732;2022-08-19T05:08:39;7.97;;;7.22;;
11328;SDS011;5719;42.714;23.732;2022-08-19T05:11:09;10.13;;;7.43;;
11328;SDS011;5719;42.714;23.732;2022-08-19T05:13:38;8.65;;;7.65;;
11328;SDS011;5719;42.714;23.732;2022-08-19T05:16:05;8.23;;;7.28;;
11328;SDS011;5719;42.714;23.732;2022-08-19T05:18:33;7.85;;;7.05;;
11328;SDS011;5719;42.714;23.732;2022-08-19T05:21:19;7.22;;;6.63;;
11328;SDS011;5719;42.714;23.732;2022-08-19T05:24:03;7.13;;;6.43;;
11328;SDS011;5719;42.714;23.732;2022-08-19T05:26:34;8.93;;;6.68;;
11328;SDS011;5719;42.714;23.732;2022-08-19T05:29:01;9.15;;;6.43;;
11328;SDS011;5719;42.714;23.732;2022-08-19T05:31:29;9.63;;;6.35;;
11328;SDS011;5719;42.714;23.732;2022-08-19T05:33:57;6.90;;;6.30;;
11328;SDS011;5719;42.714;23.732;2022-08-19T05:36:26;6.95;;;6.35;;
11328;SDS011;5719;42.714;23.732;2022-08-19T05:38:55;9.60;;;6.30;;
11328;SDS011;5719;42.714;23.732;2022-08-19T05:41:22;9.30;;;6.10;;
11328;SDS011;5719;42.714;23.732;2022-08-19T05:43:54;13.23;;;6.50;;
11328;SDS011;5719;42.714;23.732;2022-08-19T05:46:21;6.90;;;6.28;;
11328;SDS011;5719;42.714;23.732;2022-08-19T05:48:48;8.10;;;6.20;;
11328;SDS011;5719;42.714;23.732;2022-08-19T05:51:15;7.38;;;6.45;;
11328;SDS011;5719;42.714;23.732;2022-08-19T05:53:44;8.10;;;6.32;;
11328;SDS011;5719;42.714;23.732;2022-08-19T05:56:12;6.72;;;6.05;;
11328;SDS011;5719;42.714;23.732;2022-08-19T05:58:41;14.48;;;6.13;;
11328;SDS011;5719;42.714;23.732;2022-08-19T06:01:10;5.70;;;5.20;;
11328;SDS011;5719;42.714;23.732;2022-08-19T06:03:38;9.05;;;4.97;;
11328;SDS011;5719;42.714;23.732;2022-08-19T06:06:06;5.55;;;5.10;;
11328;SDS011;5719;42.714;23.732;2022-08-19T06:08:34;7.22;;;5.18;;
11328;SDS011;5719;42.714;23.732;2022-08-19T06:11:15;5.15;;;4.75;;
11328;SDS011;5719;42.714;23.732;2022-08-19T06:13:44;5.53;;;4.68;;
11328;SDS011;5719;42.714;23.732;2022-08-19T06:16:16;7.63;;;4.72;;
11328;SDS011;5719;42.714;23.732;2022-08-19T06:18:47;8.52;;;4.75;;
11328;SDS011;5719;42.714;23.732;2022-08-19T06:21:16;5.00;;;4.32;;
11328;SDS011;5719;42.714;23.732;2022-08-19T06:23:44;8.35;;;4.75;;
11328;SDS011;5719;42.714;23.732;2022-08-19T06:26:12;10.18;;;4.90;;
11328;SDS011;5719;42.714;23.732;2022-08-19T06:28:40;6.53;;;4.80;;
11328;SDS011;5719;42.714;23.732;2022-08-19T06:31:11;6.63;;;5.03;;
11328;SDS011;5719;42.714;23.732;2022-08-19T06:33:41;5.70;;;4.20;;
11328;SDS011;5719;42.714;23.732;2022-08-19T06:36:15;22.05;;;4.93;;
11328;SDS011;5719;42.714;23.732;2022-08-19T06:38:44;4.88;;;4.20;;
11328;SDS011;5719;42.714;23.732;2022-08-19T06:41:11;6.45;;;4.30;;
11328;SDS011;5719;42.714;23.732;2022-08-19T06:43:38;7.68;;;4.50;;
11328;SDS011;5719;42.714;23.732;2022-08-19T06:46:10;5.80;;;4.32;;
11328;SDS011;5719;42.714;23.732;2022-08-19T06:48:39;5.68;;;4.30;;
11328;SDS011;5719;42.714;23.732;2022-08-19T06:51:06;4.95;;;4.55;;
11328;SDS011;5719;42.714;23.732;2022-08-19T06:53:33;5.07;;;4.57;;
11328;SDS011;5719;42.714;23.732;2022-08-19T06:56:00;4.65;;;4.22;;
11328;SDS011;5719;42.714;23.732;2022-08-19T06:58:28;5.47;;;4.47;;
11328;SDS011;5719;42.714;23.732;2022-08-19T07:00:57;13.65;;;4.50;;
11328;SDS011;5719;42.714;23.732;2022-08-19T07:03:28;6.20;;;4.20;;
11328;SDS011;5719;42.714;23.732;2022-08-19T07:05:57;5.60;;;4.20;;
11328;SDS011;5719;42.714;23.732;2022-08-19T07:08:24;4.50;;;4.10;;
11328;SDS011;5719;42.714;23.732;2022-08-19T07:10:52;5.15;;;4.15;;
11328;SDS011;5719;42.714;23.732;2022-08-19T07:13:19;6.00;;;3.80;;
11328;SDS011;5719;42.714;23.732;2022-08-19T07:15:48;4.75;;;3.97;;
11328;SDS011;5719;42.714;23.732;2022-08-19T07:18:16;4.68;;;4.10;;
11328;SDS011;5719;42.714;23.732;2022-08-19T07:20:45;4.38;;;3.75;;
11328;SDS011;5719;42.714;23.732;2022-08-19T07:23:13;5.85;;;3.67;;
11328;SDS011;5719;42.714;23.732;2022-08-19T07:25:40;4.45;;;4.05;;
11328;SDS011;5719;42.714;23.732;2022-08-19T07:28:08;5.28;;;3.90;;
11328;SDS011;5719;42.714;23.732;2022-08-19T07:30:38;7.25;;;4.03;;
11328;SDS011;5719;42.714;23.732;2022-08-19T07:33:06;4.53;;;3.67;;
11328;SDS011;5719;42.714;23.732;2022-08-19T07:35:33;4.88;;;3.83;;
11328;SDS011;5719;42.714;23.732;2022-08-19T07:38:01;4.53;;;3.80;;
11328;SDS011;5719;42.714;23.732;2022-08-19T07:40:31;4.30;;;3.53;;
11328;SDS011;5719;42.714;23.732;2022-08-19T07:42:58;4.50;;;3.65;;
11328;SDS011;5719;42.714;23.732;2022-08-19T07:45:25;6.00;;;4.13;;
11328;SDS011;5719;42.714;23.732;2022-08-19T07:47:53;6.65;;;4.30;;
11328;SDS011;5719;42.714;23.732;2022-08-19T07:50:21;6.50;;;3.95;;
11328;SDS011;5719;42.714;23.732;2022-08-19T07:52:48;7.40;;;3.88;;
11328;SDS011;5719;42.714;23.732;2022-08-19T07:55:19;5.95;;;3.75;;
11328;SDS011;5719;42.714;23.732;2022-08-19T07:57:48;4.47;;;4.07;;
11328;SDS011;5719;42.714;23.732;2022-08-19T08:00:17;5.15;;;3.90;;
11328;SDS011;5719;42.714;23.732;2022-08-19T08:02:44;5.80;;;3.97;;
11328;SDS011;5719;42.714;23.732;2022-08-19T08:05:11;3.58;;;3.38;;
11328;SDS011;5719;42.714;23.732;2022-08-19T08:07:56;3.90;;;3.60;;
11328;SDS011;5719;42.714;23.732;2022-08-19T08:10:42;8.80;;;3.95;;
11328;SDS011;5719;42.714;23.732;2022-08-19T08:13:09;5.20;;;3.60;;
11328;SDS011;5719;42.714;23.732;2022-08-19T08:15:36;4.38;;;3.83;;
11328;SDS011;5719;42.714;23.732;2022-08-19T08:18:03;5.97;;;3.95;;
11328;SDS011;5719;42.714;23.732;2022-08-19T08:20:31;6.22;;;4.07;;
11328;SDS011;5719;42.714;23.732;2022-08-19T08:22:58;6.00;;;4.20;;
11328;SDS011;5719;42.714;23.732;2022-08-19T08:25:43;4.75;;;4.25;;
11328;SDS011;5719;42.714;23.732;2022-08-19T08:28:10;6.75;;;3.80;;
11328;SDS011;5719;42.714;23.732;2022-08-19T08:30:37;4.00;;;3.70;;
11328;SDS011;5719;42.714;23.732;2022-08-19T08:33:06;5.95;;;4.10;;
11328;SDS011;5719;42.714;23.732;2022-08-19T08:35:34;4.10;;;3.80;;
11328;SDS011;5719;42.714;23.732;2022-08-19T08:38:02;4.32;;;3.90;;
11328;SDS011;5719;42.714;23.732;2022-08-19T08:40:30;5.78;;;3.67;;
11328;SDS011;5719;42.714;23.732;2022-08-19T08:43:07;11.30;;;4.03;;
11328;SDS011;5719;42.714;23.732;2022-08-19T08:45:42;5.88;;;3.90;;
11328;SDS011;5719;42.714;23.732;2022-08-19T08:48:18;6.85;;;3.65;;
11328;SDS011;5719;42.714;23.732;2022-08-19T08:50:50;7.78;;;4.40;;
11328;SDS011;5719;42.714;23.732;2022-08-19T08:53:21;8.30;;;3.75;;
11328;SDS011;5719;42.714;23.732;2022-08-19T08:55:49;6.85;;;4.03;;
11328;SDS011;5719;42.714;23.732;2022-08-19T08:58:19;5.10;;;3.88;;
11328;SDS011;5719;42.714;23.732;2022-08-19T09:00:52;6.95;;;3.50;;
11328;SDS011;5719;42.714;23.732;2022-08-19T09:03:20;8.15;;;3.55;;
11328;SDS011;5719;42.714;23.732;2022-08-19T09:06:01;8.10;;;3.70;;
11328;SDS011;5719;42.714;23.732;2022-08-19T09:08:36;10.98;;;4.00;;
11328;SDS011;5719;42.714;23.732;2022-08-19T09:13:45;6.55;;;3.55;;
11328;SDS011;5719;42.714;23.732;2022-08-19T09:16:30;4.57;;;3.13;;
11328;SDS011;5719;42.714;23.732;2022-08-19T09:18:58;5.95;;;3.22;;
11328;SDS011;5719;42.714;23.732;2022-08-19T09:21:28;3.47;;;3.20;;
11328;SDS011;5719;42.714;23.732;2022-08-19T09:23:55;7.90;;;3.13;;
11328;SDS011;5719;42.714;23.732;2022-08-19T09:26:23;4.35;;;3.28;;
11328;SDS011;5719;42.714;23.732;2022-08-19T09:28:52;3.70;;;3.40;;
11328;SDS011;5719;42.714;23.732;2022-08-19T09:31:20;5.50;;;3.15;;
11328;SDS011;5719;42.714;23.732;2022-08-19T09:33:49;4.32;;;3.25;;
11328;SDS011;5719;42.714;23.732;2022-08-19T09:36:18;4.90;;;3.00;;
11328;SDS011;5719;42.714;23.732;2022-08-19T09:38:47;5.38;;;3.15;;
11328;SDS011;5719;42.714;23.732;2022-08-19T09:41:16;5.57;;;3.00;;
11328;SDS011;5719;42.714;23.732;2022-08-19T09:43:45;5.85;;;2.92;;
11328;SDS011;5719;42.714;23.732;2022-08-19T09:46:15;7.20;;;3.15;;
11328;SDS011;5719;42.714;23.732;2022-08-19T09:48:43;6.90;;;3.30;;
11328;SDS011;5719;42.714;23.732;2022-08-19T09:51:14;7.70;;;3.20;;
11328;SDS011;5719;42.714;23.732;2022-08-19T09:53:43;4.22;;;2.90;;
11328;SDS011;5719;42.714;23.732;2022-08-19T09:56:11;5.35;;;3.00;;
11328;SDS011;5719;42.714;23.732;2022-08-19T09:58:38;9.13;;;3.20;;
11328;SDS011;5719;42.714;23.732;2022-08-19T10:01:06;5.50;;;3.08;;
11328;SDS011;5719;42.714;23.732;2022-08-19T10:03:36;3.25;;;2.92;;
11328;SDS011;5719;42.714;23.732;2022-08-19T10:06:03;5.20;;;3.15;;
11328;SDS011;5719;42.714;23.732;2022-08-19T10:08:33;6.18;;;3.17;;
11328;SDS011;5719;42.714;23.732;2022-08-19T10:11:02;3.20;;;2.90;;
11328;SDS011;5719;42.714;23.732;2022-08-19T10:13:33;3.30;;;2.72;;
11328;SDS011;5719;42.714;23.732;2022-08-19T10:16:03;3.65;;;3.20;;
11328;SDS011;5719;42.714;23.732;2022-08-19T10:18:32;4.43;;;2.83;;
11328;SDS011;5719;42.714;23.732;2022-08-19T10:21:03;3.42;;;3.00;;
11328;SDS011;5719;42.714;23.732;2022-08-19T10:23:33;6.07;;;3.10;;
11328;SDS011;5719;42.714;23.732;2022-08-19T10:26:01;7.78;;;2.97;;
11328;SDS011;5719;42.714;23.732;2022-08-19T10:28:31;5.55;;;3.00;;
11328;SDS011;5719;42.714;23.732;2022-08-19T10:31:03;6.85;;;3.28;;
11328;SDS011;5719;42.714;23.732;2022-08-19T10:33:31;3.70;;;3.00;;
11328;SDS011;5719;42.714;23.732;2022-08-19T10:36:01;9.60;;;3.15;;
11328;SDS011;5719;42.714;23.732;2022-08-19T10:38:29;4.35;;;2.90;;
11328;SDS011;5719;42.714;23.732;2022-08-19T10:40:57;4.75;;;2.88;;
11328;SDS011;5719;42.714;23.732;2022-08-19T10:43:24;3.90;;;3.00;;
11328;SDS011;5719;42.714;23.732;2022-08-19T10:45:54;3.20;;;2.80;;
11328;SDS011;5719;42.714;23.732;2022-08-19T10:48:24;6.22;;;2.90;;
11328;SDS011;5719;42.714;23.732;2022-08-19T10:50:51;5.97;;;2.67;;
11328;SDS011;5719;42.714;23.732;2022-08-19T10:53:37;3.35;;;2.58;;
11328;SDS011;5719;42.714;23.732;2022-08-19T10:56:04;6.55;;;2.58;;
11328;SDS011;5719;42.714;23.732;2022-08-19T10:58:49;6.38;;;3.00;;
11328;SDS011;5719;42.714;23.732;2022-08-19T11:01:16;4.43;;;3.13;;
11328;SDS011;5719;42.714;23.732;2022-08-19T11:03:43;5.75;;;2.97;;
11328;SDS011;5719;42.714;23.732;2022-08-19T11:06:10;8.73;;;3.30;;
11328;SDS011;5719;42.714;23.732;2022-08-19T11:08:39;7.57;;;3.00;;
11328;SDS011;5719;42.714;23.732;2022-08-19T11:11:09;9.23;;;3.33;;
11328;SDS011;5719;42.714;23.732;2022-08-19T11:13:38;7.95;;;2.90;;
11328;SDS011;5719;42.714;23.732;2022-08-19T11:16:09;7.45;;;3.10;;
11328;SDS011;5719;42.714;23.732;2022-08-19T11:18:39;4.28;;;2.80;;
11328;SDS011;5719;42.714;23.732;2022-08-19T11:21:09;5.85;;;2.92;;
11328;SDS011;5719;42.714;23.732;2022-08-19T11:23:41;4.90;;;2.97;;
11328;SDS011;5719;42.714;23.732;2022-08-19T11:26:08;5.85;;;2.90;;
11328;SDS011;5719;42.714;23.732;2022-08-19T11:28:35;10.57;;;3.67;;
11328;SDS011;5719;42.714;23.732;2022-08-19T11:31:03;8.27;;;3.55;;
11328;SDS011;5719;42.714;23.732;2022-08-19T11:33:31;5.40;;;3.45;;
11328;SDS011;5719;42.714;23.732;2022-08-19T11:35:58;6.80;;;3.00;;
11328;SDS011;5719;42.714;23.732;2022-08-19T11:38:25;4.82;;;2.85;;
11328;SDS011;5719;42.714;23.732;2022-08-19T11:40:55;6.47;;;3.30;;
11328;SDS011;5719;42.714;23.732;2022-08-19T11:43:23;5.88;;;2.97;;
11328;SDS011;5719;42.714;23.732;2022-08-19T11:45:51;5.38;;;3.35;;
11328;SDS011;5719;42.714;23.732;2022-08-19T11:48:18;9.10;;;3.70;;
11328;SDS011;5719;42.714;23.732;2022-08-19T11:50:47;7.05;;;3.08;;
11328;SDS011;5719;42.714;23.732;2022-08-19T11:53:14;9.13;;;3.33;;
11328;SDS011;5719;42.714;23.732;2022-08-19T11:55:41;10.25;;;3.15;;
11328;SDS011;5719;42.714;23.732;2022-08-19T11:58:11;7.53;;;2.97;;
11328;SDS011;5719;42.714;23.732;2022-08-19T12:00:38;9.02;;;3.28;;
11328;SDS011;5719;42.714;23.732;2022-08-19T12:03:06;6.50;;;2.97;;
11328;SDS011;5719;42.714;23.732;2022-08-19T12:05:35;5.47;;;3.00;;
11328;SDS011;5719;42.714;23.732;2022-08-19T12:08:03;4.63;;;2.65;;
11328;SDS011;5719;42.714;23.732;2022-08-19T12:10:30;6.50;;;2.80;;
11328;SDS011;5719;42.714;23.732;2022-08-19T12:12:58;7.38;;;3.30;;
11328;SDS011;5719;42.714;23.732;2022-08-19T12:15:27;9.18;;;2.80;;
11328;SDS011;5719;42.714;23.732;2022-08-19T12:17:55;7.18;;;2.97;;
11328;SDS011;5719;42.714;23.732;2022-08-19T12:20:23;5.22;;;3.00;;
11328;SDS011;5719;42.714;23.732;2022-08-19T12:22:51;4.38;;;2.33;;
11328;SDS011;5719;42.714;23.732;2022-08-19T12:25:18;4.10;;;2.83;;
11328;SDS011;5719;42.714;23.732;2022-08-19T12:27:45;4.68;;;2.85;;
11328;SDS011;5719;42.714;23.732;2022-08-19T12:30:13;11.93;;;3.53;;
11328;SDS011;5719;42.714;23.732;2022-08-19T12:32:42;5.68;;;3.05;;
11328;SDS011;5719;42.714;23.732;2022-08-19T12:35:09;8.07;;;2.90;;
11328;SDS011;5719;42.714;23.732;2022-08-19T12:37:39;5.20;;;2.60;;
11328;SDS011;5719;42.714;23.732;2022-08-19T12:40:10;5.88;;;3.03;;
11328;SDS011;5719;42.714;23.732;2022-08-19T12:42:38;7.32;;;2.95;;
11328;SDS011;5719;42.714;23.732;2022-08-19T12:45:08;10.00;;;2.90;;
11328;SDS011;5719;42.714;23.732;2022-08-19T12:47:44;5.80;;;2.88;;
11328;SDS011;5719;42.714;23.732;2022-08-19T12:50:11;6.32;;;2.70;;
11328;SDS011;5719;42.714;23.732;2022-08-19T12:52:38;6.07;;;3.00;;
11328;SDS011;5719;42.714;23.732;2022-08-19T12:55:08;6.50;;;2.83;;
11328;SDS011;5719;42.714;23.732;2022-08-19T12:57:36;3.58;;;3.05;;
11328;SDS011;5719;42.714;23.732;2022-08-19T13:00:04;5.30;;;3.10;;
11328;SDS011;5719;42.714;23.732;2022-08-19T13:02:35;7.78;;;2.83;;
11328;SDS011;5719;42.714;23.732;2022-08-19T13:05:05;10.50;;;2.83;;
11328;SDS011;5719;42.714;23.732;2022-08-19T13:07:33;5.63;;;2.75;;
11328;SDS011;5719;42.714;23.732;2022-08-19T13:10:00;5.57;;;2.80;;
11328;SDS011;5719;42.714;23.732;2022-08-19T13:12:27;3.70;;;2.80;;
11328;SDS011;5719;42.714;23.732;2022-08-19T13:14:54;7.65;;;3.10;;
11328;SDS011;5719;42.714;23.732;2022-08-19T13:17:22;7.22;;;2.80;;
11328;SDS011;5719;42.714;23.732;2022-08-19T13:19:50;7.95;;;2.67;;
11328;SDS011;5719;42.714;23.732;2022-08-19T13:22:18;7.30;;;3.10;;
11328;SDS011;5719;42.714;23.732;2022-08-19T13:24:45;5.28;;;2.95;;
11328;SDS011;5719;42.714;23.732;2022-08-19T13:27:13;3.50;;;3.20;;
11328;SDS011;5719;42.714;23.732;2022-08-19T13:29:40;6.95;;;2.92;;
11328;SDS011;5719;42.714;23.732;2022-08-19T13:32:25;9.25;;;2.92;;
11328;SDS011;5719;42.714;23.732;2022-08-19T13:35:10;7.15;;;3.08;;
11328;SDS011;5719;42.714;23.732;2022-08-19T13:37:38;6.05;;;3.00;;
11328;SDS011;5719;42.714;23.732;2022-08-19T13:40:09;4.30;;;2.60;;
11328;SDS011;5719;42.714;23.732;2022-08-19T13:42:40;3.63;;;2.67;;
11328;SDS011;5719;42.714;23.732;2022-08-19T13:45:08;7.47;;;2.83;;
11328;SDS011;5719;42.714;23.732;2022-08-19T13:47:35;5.50;;;2.70;;
11328;SDS011;5719;42.714;23.732;2022-08-19T13:50:04;7.95;;;2.85;;
11328;SDS011;5719;42.714;23.732;2022-08-19T13:52:31;4.03;;;2.95;;
11328;SDS011;5719;42.714;23.732;2022-08-19T13:55:00;3.53;;;2.50;;
11328;SDS011;5719;42.714;23.732;2022-08-19T13:57:30;5.75;;;2.95;;
11328;SDS011;5719;42.714;23.732;2022-08-19T13:59:57;3.80;;;2.88;;
11328;SDS011;5719;42.714;23.732;2022-08-19T14:02:24;5.18;;;2.72;;
11328;SDS011;5719;42.714;23.732;2022-08-19T14:04:52;2.70;;;2.53;;
11328;SDS011;5719;42.714;23.732;2022-08-19T14:07:19;6.28;;;2.80;;
11328;SDS011;5719;42.714;23.732;2022-08-19T14:09:48;6.70;;;3.10;;
11328;SDS011;5719;42.714;23.732;2022-08-19T14:12:19;4.82;;;2.80;;
11328;SDS011;5719;42.714;23.732;2022-08-19T14:14:46;4.70;;;2.80;;
11328;SDS011;5719;42.714;23.732;2022-08-19T14:17:13;6.93;;;3.03;;
11328;SDS011;5719;42.714;23.732;2022-08-19T14:19:40;3.80;;;3.13;;
11328;SDS011;5719;42.714;23.732;2022-08-19T14:22:07;8.60;;;2.90;;
11328;SDS011;5719;42.714;23.732;2022-08-19T14:24:36;7.40;;;2.70;;
11328;SDS011;5719;42.714;23.732;2022-08-19T14:27:04;4.10;;;3.08;;
11328;SDS011;5719;42.714;23.732;2022-08-19T14:29:34;4.85;;;2.83;;
11328;SDS011;5719;42.714;23.732;2022-08-19T14:32:01;6.40;;;2.88;;
11328;SDS011;5719;42.714;23.732;2022-08-19T14:34:28;4.63;;;2.70;;
11328;SDS011;5719;42.714;23.732;2022-08-19T14:36:57;4.72;;;2.75;;
11328;SDS011;5719;42.714;23.732;2022-08-19T14:39:24;4.20;;;2.60;;
11328;SDS011;5719;42.714;23.732;2022-08-19T14:41:51;4.32;;;2.60;;
11328;SDS011;5719;42.714;23.732;2022-08-19T14:44:18;7.78;;;2.80;;
11328;SDS011;5719;42.714;23.732;2022-08-19T14:46:49;6.05;;;2.67;;
11328;SDS011;5719;42.714;23.732;2022-08-19T14:49:16;4.13;;;2.88;;
11328;SDS011;5719;42.714;23.732;2022-08-19T14:51:43;5.47;;;2.80;;
11328;SDS011;5719;42.714;23.732;2022-08-19T14:54:12;7.13;;;2.83;;
11328;SDS011;5719;42.714;23.732;2022-08-19T14:56:39;3.30;;;2.80;;
11328;SDS011;5719;42.714;23.732;2022-08-19T14:59:07;6.82;;;3.08;;